Time;durP1;ratioP1;P1;durP2;ratioP2;P2;SDS_P1;SDS_P2;PMS_P1;PMS_P2;Temp;Humidity;BMP_temperature;BMP_pressure;BME280_temperature;BME280_humidity;BME280_pressure;Samples;Min_cycle;Max_cycle;Signal;HPM_P1;HPM_P2
2022/06/12 00:00:16;;;;;;;12.35;9.07;;;;;;;18.49;73.02;99529.16;4824060;29;20081;-92
2022/06/12 00:02:43;;;;;;;13.55;9.00;;;;;;;18.31;73.26;99509.38;4845785;29;20061;-95
2022/06/12 00:05:12;;;;;;;19.35;9.68;;;;;;;18.59;73.64;99549.94;4815938;29;20624;-95
2022/06/12 00:07:38;;;;;;;22.10;9.40;;;;;;;18.41;74.33;99518.28;4814313;29;20049;-91
2022/06/12 00:10:08;;;;;;;13.77;8.75;;;;;;;18.31;73.59;99500.28;4810708;29;20058;-95
2022/06/12 00:12:35;;;;;;;12.00;8.60;;;;;;;18.28;73.96;99501.81;4823813;29;20054;-89
2022/06/12 00:15:03;;;;;;;12.65;8.82;;;;;;;18.25;73.80;99496.19;4828643;29;20081;-93
2022/06/12 00:17:30;;;;;;;16.52;9.35;;;;;;;18.27;72.66;99496.63;4810824;29;20042;-95
2022/06/12 00:19:58;;;;;;;13.38;9.35;;;;;;;18.28;73.15;99498.25;4814173;29;20073;-91
2022/06/12 00:22:24;;;;;;;13.05;9.13;;;;;;;18.47;73.08;99528.72;4831861;29;20042;-92
2022/06/12 00:24:51;;;;;;;12.17;9.17;;;;;;;18.36;74.29;99513.84;4825062;29;20047;-93
2022/06/12 00:27:18;;;;;;;14.63;9.15;;;;;;;18.41;73.09;99513.56;4812009;29;20073;-91
2022/06/12 00:29:47;;;;;;;14.63;8.80;;;;;;;18.23;72.63;99492.97;4810758;29;20115;-96
2022/06/12 00:32:16;;;;;;;15.63;9.10;;;;;;;18.22;71.95;99485.84;4815579;29;20105;-92
2022/06/12 00:34:51;;;;;;;14.98;9.50;;;;;;;18.30;72.72;99499.47;4815500;29;20058;-93
2022/06/12 00:37:20;;;;;;;14.77;9.02;;;;;;;18.25;72.79;99494.22;4795257;29;20076;-91
2022/06/12 00:39:49;;;;;;;13.90;9.30;;;;;;;18.32;73.69;99512.94;4833142;29;20069;-90
2022/06/12 00:42:27;;;;;;;15.13;10.20;;;;;;;18.22;74.36;99496.91;4851790;29;20040;-92
2022/06/12 00:44:56;;;;;;;18.73;9.18;;;;;;;18.24;74.57;99489.81;4852844;29;20025;-89
2022/06/12 00:47:23;;;;;;;16.65;9.73;;;;;;;18.47;74.88;99527.91;4867174;29;20044;-92
2022/06/12 00:50:03;;;;;;;17.30;10.80;;;;;;;18.23;76.00;99496.53;4873307;29;20048;-91
2022/06/12 00:52:43;;;;;;;14.07;9.82;;;;;;;18.22;76.00;99496.91;4864737;29;20041;-90
2022/06/12 00:55:24;;;;;;;22.15;11.15;;;;;;;18.39;76.45;99524.19;4866562;29;20061;-90
2022/06/12 00:57:58;;;;;;;17.25;11.52;;;;;;;18.24;76.11;99500.91;4869784;29;20049;-91
2022/06/12 01:00:26;;;;;;;15.85;11.23;;;;;;;18.38;76.62;99521.78;4854549;29;20025;-90
2022/06/12 01:02:53;;;;;;;19.27;12.13;;;;;;;18.25;76.31;99502.53;4855382;29;20041;-92
2022/06/12 01:08:08;;;;;;;19.15;11.98;;;;;;;18.54;77.90;99564.88;4851573;29;19932;-92
2022/06/12 01:10:38;;;;;;;17.85;11.43;;;;;;;18.23;77.85;99531.72;4836393;29;20036;-91
2022/06/12 01:13:10;;;;;;;19.20;12.32;;;;;;;18.12;78.04;99520.38;4822640;29;20049;-91
2022/06/12 01:15:55;;;;;;;15.07;12.20;;;;;;;18.08;78.01;99514.78;4819144;29;20045;-91
2022/06/12 01:18:28;;;;;;;18.10;12.13;;;;;;;18.29;78.54;99530.28;4815104;29;20065;-91
2022/06/12 01:20:59;;;;;;;18.02;12.15;;;;;;;18.57;78.17;99570.84;4834754;29;20063;-91
2022/06/12 01:23:34;;;;;;;19.15;12.00;;;;;;;18.56;78.27;99578.34;4828857;29;20045;-90
2022/06/12 01:26:11;;;;;;;19.02;12.80;;;;;;;18.55;78.34;99576.75;4818739;29;20477;-91
2022/06/12 01:29:00;;;;;;;17.58;11.77;;;;;;;18.18;77.74;99518.13;4820251;29;20042;-92
2022/06/12 01:32:02;;;;;;;19.48;10.73;;;;;;;18.25;76.82;99538.50;4867574;29;20048;-90
2022/06/12 01:34:51;;;;;;;19.50;11.10;;;;;;;18.36;76.72;99549.00;4862655;29;20052;-90
2022/06/12 01:37:42;;;;;;;21.55;12.00;;;;;;;18.54;77.24;99573.19;4866504;29;20609;-95
2022/06/12 01:40:30;;;;;;;21.10;12.45;;;;;;;18.54;77.05;99575.13;4859305;29;20051;-90
2022/06/12 01:43:23;;;;;;;19.30;10.90;;;;;;;18.14;77.04;99514.47;4857523;29;20056;-90
2022/06/12 01:46:16;;;;;;;16.77;10.90;;;;;;;18.48;77.48;99568.28;4848404;29;20056;-90
2022/06/12 01:48:46;;;;;;;16.25;11.63;;;;;;;18.56;77.73;99575.59;4863755;29;20078;-92
2022/06/12 01:51:19;;;;;;;20.88;11.10;;;;;;;18.25;77.07;99537.69;4834791;29;20136;-91
2022/06/12 01:53:53;;;;;;;19.13;10.27;;;;;;;18.54;77.17;99575.97;4834806;29;20442;-91
2022/06/12 01:56:44;;;;;;;15.53;10.43;;;;;;;18.16;76.97;99515.75;4854365;29;20060;-90
2022/06/12 01:59:40;;;;;;;23.50;10.98;;;;;;;18.44;76.57;99565.44;4854956;29;20558;-91
2022/06/12 02:02:29;;;;;;;17.43;11.53;;;;;;;18.54;77.35;99581.50;4827686;29;20049;-96
2022/06/12 02:05:12;;;;;;;20.98;11.60;;;;;;;18.58;77.11;99580.78;4849097;29;20048;-90
2022/06/12 02:07:44;;;;;;;19.40;11.60;;;;;;;18.30;77.74;99524.38;4865444;29;20073;-92
2022/06/12 02:10:22;;;;;;;21.20;11.25;;;;;;;18.58;78.48;99572.47;4857987;29;20048;-95
2022/06/12 02:13:11;;;;;;;16.48;12.13;;;;;;;18.19;78.94;99505.91;4838995;29;20040;-89
2022/06/12 02:16:05;;;;;;;23.85;12.80;;;;;;;18.24;78.17;99520.25;4853075;29;20044;-96
2022/06/12 02:18:41;;;;;;;24.10;12.30;;;;;;;18.63;77.39;99583.25;4849078;29;20074;-90
2022/06/12 02:21:37;;;;;;;22.83;11.85;;;;;;;18.38;76.64;99543.94;4856907;29;20100;-93
2022/06/12 02:24:42;;;;;;;20.83;12.10;;;;;;;18.43;77.87;99549.19;4833064;29;20037;-90
2022/06/12 02:27:39;;;;;;;17.83;12.00;;;;;;;18.65;77.69;99573.44;4833437;29;20072;-91
2022/06/12 02:30:11;;;;;;;18.02;12.02;;;;;;;18.52;77.60;99564.44;4834482;29;20045;-92
2022/06/12 02:32:47;;;;;;;21.88;12.68;;;;;;;18.68;77.37;99581.00;4848756;29;20037;-92
2022/06/12 02:35:25;;;;;;;17.02;12.82;;;;;;;18.31;77.87;99517.69;4846473;29;20045;-91
2022/06/12 02:37:57;;;;;;;23.65;12.82;;;;;;;18.62;77.20;99563.06;4818615;29;20503;-95
2022/06/12 02:40:48;;;;;;;21.38;12.27;;;;;;;18.40;76.68;99533.28;4831428;29;20041;-91
2022/06/12 02:43:20;;;;;;;20.33;12.43;;;;;;;18.66;77.23;99571.47;4833530;29;20048;-90
2022/06/12 02:46:18;;;;;;;18.50;12.18;;;;;;;18.62;77.45;99551.19;4849157;29;20036;-91
2022/06/12 02:48:45;;;;;;;22.63;12.52;;;;;;;18.48;76.27;99530.34;4852885;29;20077;-91
2022/06/12 02:51:38;;;;;;;25.52;13.13;;;;;;;18.71;75.73;99565.66;4864410;29;20423;-94
2022/06/12 02:54:34;;;;;;;23.45;14.10;;;;;;;18.74;76.50;99562.16;4819057;29;20049;-92
2022/06/12 02:57:10;;;;;;;24.70;13.70;;;;;;;18.49;75.21;99526.38;4808595;29;20050;-96
2022/06/12 02:59:55;;;;;;;25.02;14.40;;;;;;;18.89;76.47;99591.00;4792822;29;20058;-90
2022/06/12 03:02:24;;;;;;;28.00;13.10;;;;;;;18.89;75.27;99585.44;4807113;29;20547;-95
2022/06/12 03:05:16;;;;;;;27.77;13.55;;;;;;;18.52;74.79;99533.19;4808603;29;20103;-94
2022/06/12 03:07:43;;;;;;;27.63;13.80;;;;;;;18.76;75.35;99566.19;4806412;29;20467;-92
2022/06/12 03:10:14;;;;;;;27.13;13.70;;;;;;;18.52;75.40;99527.66;4795102;29;20510;-95
2022/06/12 03:12:40;;;;;;;23.65;15.23;;;;;;;18.64;75.58;99541.38;4775759;29;20053;-94
2022/06/12 03:15:26;;;;;;;22.77;13.70;;;;;;;18.93;75.13;99580.78;4793282;29;20066;-95
2022/06/12 03:17:56;;;;;;;24.52;13.30;;;;;;;18.73;75.06;99555.03;4813032;29;20050;-90
2022/06/12 03:20:29;;;;;;;28.80;13.57;;;;;;;18.56;74.87;99517.44;4810227;29;20476;-96
2022/06/12 03:23:08;;;;;;;23.50;12.48;;;;;;;18.67;72.78;99535.09;4810824;29;20147;-95
2022/06/12 03:25:50;;;;;;;25.55;13.75;;;;;;;18.77;74.63;99540.13;4794313;29;20141;-92
2022/06/12 03:28:35;;;;;;;21.45;12.68;;;;;;;19.14;74.37;99591.53;4823864;29;20143;-91
2022/06/12 03:31:15;;;;;;;19.83;11.20;;;;;;;19.03;73.57;99574.69;4803172;29;20096;-92
2022/06/12 03:33:55;;;;;;;20.98;9.35;;;;;;;18.95;71.82;99561.84;4818292;29;20200;-92
2022/06/12 03:36:52;;;;;;;11.75;8.23;;;;;;;18.90;71.44;99551.84;4848036;29;20057;-91
2022/06/12 03:39:29;;;;;;;12.68;8.13;;;;;;;19.02;70.81;99571.09;4842995;29;20810;-96
2022/06/12 03:42:10;;;;;;;16.05;9.13;;;;;;;18.98;71.17;99561.91;4840606;29;20056;-90
2022/06/12 03:44:47;;;;;;;14.85;8.23;;;;;;;19.11;70.04;99581.19;4859935;29;20103;-96
2022/06/12 03:47:24;;;;;;;10.13;7.60;;;;;;;19.15;70.27;99576.50;4832350;29;20045;-92
2022/06/12 03:50:13;;;;;;;12.60;8.35;;;;;;;19.25;69.86;99573.97;4844251;29;20070;-94
2022/06/12 03:53:06;;;;;;;12.77;7.93;;;;;;;19.57;69.13;99595.97;4842378;29;20049;-95
2022/06/12 03:58:57;;;;;;;14.35;7.03;;;;;;;19.40;67.93;99549.28;4844964;29;20057;-91
2022/06/12 04:01:26;;;;;;;15.32;7.18;;;;;;;19.70;66.72;99588.31;4849129;29;20048;-90
2022/06/12 04:03:54;;;;;;;8.52;4.95;;;;;;;19.70;64.77;99575.28;4848227;29;20049;-90
2022/06/12 04:06:25;;;;;;;9.80;5.15;;;;;;;19.73;64.95;99568.16;4860686;29;20476;-90
2022/06/12 04:08:56;;;;;;;8.68;6.00;;;;;;;20.11;67.09;99608.09;4869865;29;20041;-96
2022/06/12 04:11:27;;;;;;;12.30;6.00;;;;;;;20.19;64.79;99609.81;4874155;29;20547;-91
2022/06/12 04:13:53;;;;;;;14.00;5.78;;;;;;;19.91;65.21;99552.66;4864865;29;20066;-90
2022/06/12 04:16:19;;;;;;;;;;;;;;;20.37;63.80;99607.34;4864501;29;20127;-94
2022/06/12 04:18:45;;;;;;;15.15;8.55;;;;;;;20.47;63.57;99606.72;4833547;29;19968;-96
2022/06/12 04:21:30;;;;;;;19.42;9.27;;;;;;;20.59;65.53;99614.84;4848317;29;20472;-95
2022/06/12 04:24:19;;;;;;;12.95;9.07;;;;;;;20.72;66.92;99615.44;4849684;29;20415;-95
2022/06/12 04:27:16;;;;;;;14.18;11.10;;;;;;;20.78;65.54;99608.41;4862517;29;20455;-93
2022/06/12 04:30:05;;;;;;;24.25;10.85;;;;;;;20.75;64.94;99586.91;4859801;29;20060;-94
2022/06/12 04:32:32;;;;;;;20.67;11.82;;;;;;;20.90;65.91;99609.38;4859970;29;20109;-94
2022/06/12 04:34:58;;;;;;;21.08;9.60;;;;;;;20.92;62.53;99618.13;4838892;29;20663;-92
2022/06/12 04:37:31;;;;;;;22.33;12.35;;;;;;;20.92;63.99;99598.66;4836354;29;20022;-93
2022/06/12 04:40:00;;;;;;;21.60;12.55;;;;;;;20.98;62.50;99599.94;4868285;29;20045;-95
2022/06/12 04:42:30;;;;;;;17.77;13.60;;;;;;;20.85;63.37;99586.28;4855150;29;20045;-96
2022/06/12 04:44:59;;;;;;;20.42;14.38;;;;;;;20.99;64.28;99602.38;4877312;29;20044;-95
2022/06/12 04:47:25;;;;;;;27.63;15.52;;;;;;;20.95;64.93;99572.91;4867190;29;20067;-96
2022/06/12 04:49:55;;;;;;;22.52;15.43;;;;;;;21.19;65.03;99603.03;4866792;29;20564;-91
2022/06/12 04:52:25;;;;;;;21.45;14.75;;;;;;;21.19;63.07;99594.69;4882971;29;20047;-95
2022/06/12 04:54:51;;;;;;;22.75;15.73;;;;;;;21.22;63.65;99582.78;4846723;29;20041;-92
2022/06/12 04:57:19;;;;;;;25.13;14.35;;;;;;;21.45;64.23;99604.16;4848855;29;20392;-93
2022/06/12 04:59:46;;;;;;;22.35;14.40;;;;;;;21.37;61.47;99592.16;4844442;29;20066;-92
2022/06/12 05:02:13;;;;;;;23.80;13.80;;;;;;;21.46;61.74;99589.06;4867845;29;20052;-89
2022/06/12 05:04:41;;;;;;;24.58;15.15;;;;;;;21.59;61.69;99607.13;4881456;29;20049;-91
2022/06/12 05:07:12;;;;;;;23.80;14.27;;;;;;;21.50;63.44;99576.81;4881330;29;20128;-90
2022/06/12 05:09:41;;;;;;;24.65;14.07;;;;;;;21.54;63.56;99574.84;5029498;23;20122;-95
2022/06/12 05:12:10;;;;;;;19.38;12.23;;;;;;;21.77;60.11;99610.88;4842022;29;20041;-91
2022/06/12 05:14:36;;;;;;;26.60;12.82;;;;;;;21.82;62.03;99604.19;4826098;29;20049;-93
2022/06/12 05:17:07;;;;;;;21.98;12.50;;;;;;;21.85;60.51;99602.59;4828857;29;20050;-93
2022/06/12 05:19:37;;;;;;;24.38;12.43;;;;;;;22.02;60.94;99616.72;4825801;29;20058;-92
2022/06/12 05:22:12;;;;;;;23.30;12.55;;;;;;;22.12;59.49;99611.59;4811858;29;20042;-93
2022/06/12 05:24:45;;;;;;;21.02;12.38;;;;;;;22.04;59.02;99580.91;4821289;29;20152;-94
2022/06/12 05:27:19;;;;;;;25.48;13.48;;;;;;;22.42;59.44;99617.09;4811884;29;20046;-88
2022/06/12 05:29:46;;;;;;;25.08;13.73;;;;;;;22.41;58.15;99604.34;4816873;29;20477;-89
2022/06/12 05:32:15;;;;;;;19.08;13.30;;;;;;;22.55;57.80;99615.59;4826400;29;20503;-87
2022/06/12 05:34:41;;;;;;;24.23;13.05;;;;;;;22.52;57.74;99614.38;4827711;29;20054;-90
2022/06/12 05:37:10;;;;;;;26.85;13.50;;;;;;;22.61;60.09;99611.25;4842100;29;20041;-90
2022/06/12 05:39:37;;;;;;;24.63;13.18;;;;;;;22.67;57.48;99611.69;4806987;29;20038;-90
2022/06/12 05:42:04;;;;;;;28.50;13.18;;;;;;;22.70;58.18;99616.50;4842517;29;20419;-92
2022/06/12 05:44:32;;;;;;;19.40;12.52;;;;;;;22.62;57.39;99612.06;4828571;29;20046;-92
2022/06/12 05:46:59;;;;;;;31.55;14.00;;;;;;;22.54;55.66;99600.06;4838192;29;20041;-92
2022/06/12 05:49:27;;;;;;;31.90;12.10;;;;;;;22.44;57.41;99593.22;4806986;29;20038;-89
2022/06/12 05:51:53;;;;;;;22.50;12.32;;;;;;;22.63;56.33;99613.66;4815926;29;20054;-86
2022/06/12 05:54:19;;;;;;;15.00;10.48;;;;;;;22.66;56.60;99619.25;4839515;29;20049;-90
2022/06/12 05:56:48;;;;;;;21.33;9.95;;;;;;;22.73;56.45;99616.50;4807768;29;20134;-91
2022/06/12 05:59:16;;;;;;;16.98;9.88;;;;;;;22.68;55.55;99602.97;4841800;29;20041;-92
2022/06/12 06:01:42;;;;;;;15.95;8.75;;;;;;;22.80;55.83;99603.81;4826933;29;20043;-91
2022/06/12 06:04:09;;;;;;;19.35;9.00;;;;;;;22.77;55.26;99587.88;4827328;29;20131;-90
2022/06/12 06:06:42;;;;;;;29.58;9.13;;;;;;;22.94;54.38;99610.31;4823042;29;20086;-88
2022/06/12 06:09:09;;;;;;;11.45;7.72;;;;;;;22.96;53.25;99610.72;4824882;29;20062;-93
2022/06/12 06:11:35;;;;;;;12.77;8.30;;;;;;;22.93;52.38;99603.13;4825306;29;20050;-87
2022/06/12 06:14:03;;;;;;;20.48;9.10;;;;;;;23.02;53.08;99600.00;4814269;29;20174;-90
2022/06/12 06:16:33;;;;;;;17.85;8.65;;;;;;;23.07;52.54;99596.84;4844111;29;20136;-92
2022/06/12 06:19:00;;;;;;;18.33;7.75;;;;;;;23.13;51.93;99600.06;4824808;29;20513;-91
2022/06/12 06:21:27;;;;;;;11.95;7.68;;;;;;;23.08;52.27;99584.50;4838798;29;20050;-93
2022/06/12 06:23:53;;;;;;;13.30;7.85;;;;;;;23.12;53.43;99602.06;4826825;29;20092;-91
2022/06/12 06:26:19;;;;;;;12.35;7.70;;;;;;;23.13;51.98;99611.22;4818485;29;20137;-90
2022/06/12 06:28:49;;;;;;;10.68;7.22;;;;;;;23.06;52.43;99597.25;4825925;29;20046;-89
2022/06/12 06:31:16;;;;;;;14.60;7.70;;;;;;;23.13;52.77;99592.47;4824721;29;20057;-91
2022/06/12 06:33:46;;;;;;;15.73;7.93;;;;;;;23.27;52.14;99604.91;4842011;29;20111;-90
2022/06/12 06:36:14;;;;;;;11.10;7.50;;;;;;;23.17;52.84;99572.97;4825747;29;20050;-86
2022/06/12 06:38:40;;;;;;;10.82;8.18;;;;;;;23.43;53.74;99599.78;4828558;29;20082;-86
2022/06/12 06:41:06;;;;;;;15.80;8.05;;;;;;;23.40;52.18;99584.63;4819051;29;20071;-88
2022/06/12 06:46:13;;;;;;;13.25;7.90;;;;;;;23.36;51.55;99569.88;4824750;29;20045;-89
2022/06/12 06:46:23;;;;;;;19.73;8.40;;;;;;;23.42;52.05;99590.63;4840425;29;20050;-90
2022/06/12 06:48:50;;;;;;;16.38;8.45;;;;;;;23.32;52.80;99569.06;4843029;29;20069;-87
2022/06/12 06:51:17;;;;;;;13.13;9.68;;;;;;;23.41;50.63;99591.00;4827692;29;20390;-89
2022/06/12 06:53:44;;;;;;;15.02;10.02;;;;;;;23.36;53.24;99589.41;4828597;29;20456;-87
2022/06/12 06:56:10;;;;;;;16.13;8.60;;;;;;;23.33;52.07;99581.00;4834784;29;20057;-90
2022/06/12 06:58:36;;;;;;;10.35;8.30;;;;;;;23.36;52.33;99580.22;4796569;29;20042;-90
2022/06/12 07:01:04;;;;;;;12.32;8.25;;;;;;;23.45;51.78;99575.88;4839815;29;20050;-89
2022/06/12 07:03:31;;;;;;;13.50;8.00;;;;;;;23.58;52.33;99573.53;4817758;29;20134;-88
2022/06/12 07:05:57;;;;;;;17.15;8.48;;;;;;;23.63;50.58;99569.56;4808102;29;20568;-86
2022/06/12 07:08:26;;;;;;;19.75;8.15;;;;;;;23.58;52.24;99550.41;4836039;29;20046;-90
2022/06/12 07:10:54;;;;;;;30.08;9.15;;;;;;;23.75;50.51;99579.59;4840120;29;20062;-89
2022/06/12 07:13:21;;;;;;;15.10;9.38;;;;;;;23.70;50.60;99564.00;4842179;29;20052;-89
2022/06/12 07:15:47;;;;;;;23.95;9.18;;;;;;;23.83;51.06;99570.03;4825709;29;20049;-89
2022/06/12 07:18:14;;;;;;;15.60;8.55;;;;;;;23.98;50.67;99556.88;4841966;29;20052;-86
2022/06/12 07:20:47;;;;;;;16.98;8.25;;;;;;;24.14;49.24;99565.69;4840379;29;20576;-89
2022/06/12 07:23:15;;;;;;;10.23;8.43;;;;;;;24.10;48.18;99562.84;4842117;29;20046;-90
2022/06/12 07:25:46;;;;;;;19.42;8.48;;;;;;;24.04;49.00;99569.22;4840105;29;20038;-87
2022/06/12 07:28:13;;;;;;;21.38;8.95;;;;;;;24.05;49.36;99563.25;4825176;29;20109;-88
2022/06/12 07:30:40;;;;;;;14.75;8.38;;;;;;;24.12;49.33;99556.88;4824642;29;20053;-89
2022/06/12 07:33:07;;;;;;;23.85;8.77;;;;;;;24.24;49.51;99564.06;4824609;29;20052;-89
2022/06/12 07:35:36;;;;;;;13.65;8.30;;;;;;;24.34;49.42;99561.28;4841416;29;20053;-88
2022/06/12 07:38:02;;;;;;;13.95;9.68;;;;;;;24.39;49.35;99552.47;4823684;29;20045;-89
2022/06/12 07:40:32;;;;;;;;;;;;;;;24.55;49.24;99565.28;4823610;29;20046;-90
2022/06/12 07:42:59;;;;;;;15.70;8.80;;;;;;;24.56;49.11;99562.06;4824306;29;19932;-88
2022/06/12 07:45:25;;;;;;;17.25;8.18;;;;;;;24.56;49.01;99524.94;4840095;29;20042;-86
2022/06/12 07:47:51;;;;;;;15.18;8.48;;;;;;;24.90;47.86;99552.41;4822503;29;20476;-87
2022/06/12 07:50:17;;;;;;;13.25;8.13;;;;;;;25.01;48.30;99547.59;4825354;29;20519;-85
2022/06/12 07:52:44;;;;;;;12.43;7.93;;;;;;;25.02;47.43;99526.78;4807472;29;20038;-88
2022/06/12 07:55:15;;;;;;;11.70;7.28;;;;;;;25.27;46.89;99555.50;4836638;29;20132;-86
2022/06/12 07:57:41;;;;;;;24.73;8.73;;;;;;;25.39;46.89;99564.63;4838269;29;20070;-86
2022/06/12 08:00:10;;;;;;;13.77;7.43;;;;;;;25.47;45.53;99547.41;4839547;29;20042;-88
2022/06/12 08:02:41;;;;;;;13.40;8.15;;;;;;;25.55;45.27;99546.16;4839551;29;20397;-92
2022/06/12 08:05:11;;;;;;;25.90;7.97;;;;;;;25.66;45.80;99540.50;4793180;29;20503;-92
2022/06/12 08:07:37;;;;;;;11.23;7.25;;;;;;;25.86;45.49;99539.97;4800134;29;20082;-90
2022/06/12 08:10:06;;;;;;;11.20;6.93;;;;;;;25.94;43.60;99533.13;4780289;29;20093;-87
2022/06/12 08:12:34;;;;;;;15.68;7.50;;;;;;;25.95;42.89;99540.31;4824940;29;20049;-88
2022/06/12 08:15:00;;;;;;;14.23;7.00;;;;;;;25.84;44.39;99531.19;4837041;29;20451;-87
2022/06/12 08:17:26;;;;;;;16.25;7.05;;;;;;;25.87;43.14;99539.56;4823087;29;20046;-90
2022/06/12 08:22:36;;;;;;;27.42;8.95;;;;;;;25.70;43.42;99537.66;4825277;29;20472;-88
2022/06/12 08:25:09;;;;;;;22.02;7.85;;;;;;;25.71;46.07;99528.06;4839966;29;20575;-89
2022/06/12 08:27:36;;;;;;;10.40;7.38;;;;;;;25.69;43.67;99536.06;4834621;29;20098;-87
2022/06/12 08:30:04;;;;;;;13.55;7.72;;;;;;;25.40;42.65;99522.25;4838708;29;20046;-87
2022/06/12 08:32:31;;;;;;;9.90;7.78;;;;;;;25.09;45.84;99521.97;4823923;29;20544;-88
2022/06/12 08:35:01;;;;;;;;;;;;;;;25.07;44.92;99537.56;4799894;29;20170;-88
2022/06/12 08:37:36;;;;;;;12.95;6.95;;;;;;;24.91;45.87;99514.88;4841782;29;20011;-85
2022/06/12 08:40:11;;;;;;;9.20;7.15;;;;;;;24.81;45.46;99517.28;4831639;29;20046;-88
2022/06/12 08:43:13;;;;;;;19.15;7.65;;;;;;;24.78;44.87;99520.09;4832453;29;20174;-86
2022/06/12 08:45:47;;;;;;;9.20;6.18;;;;;;;24.68;45.10;99529.31;4802300;29;20061;-86
2022/06/12 08:48:19;;;;;;;16.17;6.68;;;;;;;24.66;46.15;99531.69;4822240;29;20046;-88
2022/06/12 08:50:57;;;;;;;16.42;7.88;;;;;;;24.56;45.81;99522.94;4818478;29;20806;-86
2022/06/12 08:53:35;;;;;;;12.68;6.45;;;;;;;24.47;45.18;99525.38;4819922;29;20917;-87
2022/06/12 08:56:08;;;;;;;17.42;7.30;;;;;;;24.41;45.84;99520.59;4832641;29;20046;-86
2022/06/12 08:59:12;;;;;;;17.10;6.43;;;;;;;24.41;44.77;99529.75;4836416;29;20049;-88
2022/06/12 09:01:42;;;;;;;14.48;8.30;;;;;;;24.20;45.91;99505.41;4796498;29;20781;-85
2022/06/12 09:04:18;;;;;;;14.57;6.57;;;;;;;24.29;46.47;99518.97;4837640;29;20046;-90
2022/06/12 09:06:48;;;;;;;24.02;11.40;;;;;;;24.27;47.72;99522.16;4836685;29;20050;-89
2022/06/12 09:09:25;;;;;;;16.63;9.75;;;;;;;24.32;47.16;99526.53;4837007;29;20141;-84
2022/06/12 09:12:02;;;;;;;25.98;12.48;;;;;;;24.31;46.55;99520.16;4836859;29;20054;-87
2022/06/12 09:14:47;;;;;;;14.88;6.45;;;;;;;24.28;45.33;99520.97;4837107;29;20046;-87
2022/06/12 09:17:24;;;;;;;25.00;12.43;;;;;;;24.29;46.41;99519.75;4817966;29;20523;-87
2022/06/12 09:20:06;;;;;;;12.43;8.02;;;;;;;24.30;45.60;99507.38;4835539;29;20046;-88
2022/06/12 09:23:00;;;;;;;14.25;7.47;;;;;;;24.35;46.13;99509.78;4836084;29;20081;-89
2022/06/12 09:25:44;;;;;;;32.70;13.65;;;;;;;24.39;45.52;99521.75;4834550;29;20050;-85
2022/06/12 09:28:28;;;;;;;19.55;11.82;;;;;;;24.39;46.23;99512.56;4831292;29;20053;-86
2022/06/12 09:31:04;;;;;;;17.20;9.13;;;;;;;24.41;46.79;99496.22;4834830;29;20049;-89
2022/06/12 09:33:50;;;;;;;10.82;6.15;;;;;;;24.58;46.34;99506.56;4834215;29;20129;-86
2022/06/12 09:36:40;;;;;;;13.20;6.22;;;;;;;24.66;42.99;99506.53;4833886;29;20515;-87
2022/06/12 09:39:22;;;;;;;19.20;8.40;;;;;;;24.61;46.05;99482.59;4818209;29;20277;-88
2022/06/12 09:41:56;;;;;;;12.27;6.80;;;;;;;24.91;44.25;99496.09;4832275;29;20222;-87
2022/06/12 09:44:27;;;;;;;11.70;6.88;;;;;;;25.16;45.58;99509.97;4827706;29;20119;-86
2022/06/12 09:47:11;;;;;;;15.63;8.27;;;;;;;25.42;43.78;99485.44;4798857;29;20081;-87
2022/06/12 09:49:50;;;;;;;12.20;7.18;;;;;;;25.70;44.77;99492.88;4831425;29;20329;-86
2022/06/12 09:52:49;;;;;;;16.27;7.30;;;;;;;25.98;42.61;99497.47;4800358;29;20921;-85
2022/06/12 09:55:33;;;;;;;16.73;8.40;;;;;;;26.08;40.49;99490.19;4815330;29;20053;-86
2022/06/12 09:58:29;;;;;;;13.57;6.78;;;;;;;26.12;42.19;99493.75;4800350;29;20102;-87
2022/06/12 10:01:04;;;;;;;7.68;5.65;;;;;;;25.95;41.05;99485.06;4826510;29;20058;-87
2022/06/12 10:03:40;;;;;;;8.18;5.68;;;;;;;26.02;41.00;99493.41;4832172;29;20057;-84
2022/06/12 10:06:29;;;;;;;8.07;6.53;;;;;;;26.01;41.70;99469.44;4820753;29;20054;-88
2022/06/12 10:09:16;;;;;;;13.48;5.97;;;;;;;26.04;39.59;99465.00;4830479;29;20058;-85
2022/06/12 10:11:53;;;;;;;9.32;7.28;;;;;;;26.00;43.72;99465.03;4827318;29;20038;-85
2022/06/12 10:14:28;;;;;;;16.27;6.50;;;;;;;26.04;42.49;99484.63;4830764;29;20041;-88
2022/06/12 10:17:22;;;;;;;6.93;6.13;;;;;;;26.08;41.86;99471.38;4798872;29;20389;-87
2022/06/12 10:20:22;;;;;;;9.95;6.63;;;;;;;26.11;42.61;99467.72;4795587;29;20250;-86
2022/06/12 10:22:50;;;;;;;9.38;6.47;;;;;;;26.24;43.18;99465.22;4782228;29;20515;-85
2022/06/12 10:25:25;;;;;;;10.32;6.80;;;;;;;26.26;42.77;99457.19;4823047;29;20514;-88
2022/06/12 10:28:01;;;;;;;13.05;6.47;;;;;;;26.38;42.50;99467.84;4797750;29;20128;-88
2022/06/12 10:30:39;;;;;;;12.93;8.83;;;;;;;26.41;41.62;99463.44;4781698;29;20038;-86
2022/06/12 10:33:24;;;;;;;17.98;9.02;;;;;;;26.54;41.16;99444.09;4797835;29;20053;-87
2022/06/12 10:35:56;;;;;;;8.48;6.57;;;;;;;26.69;40.97;99456.75;4820846;29;20057;-87
2022/06/12 10:38:25;;;;;;;12.00;7.80;;;;;;;26.75;41.65;99457.84;4827875;29;20110;-86
2022/06/12 10:40:56;;;;;;;12.35;7.05;;;;;;;26.76;40.90;99456.66;4812215;29;20440;-87
2022/06/12 10:43:36;;;;;;;9.02;6.10;;;;;;;26.79;40.70;99450.22;4811847;29;20145;-88
2022/06/12 10:46:18;;;;;;;16.55;7.00;;;;;;;26.81;40.58;99458.19;4793884;29;20923;-87
2022/06/12 10:49:00;;;;;;;8.57;6.80;;;;;;;26.81;39.88;99447.78;4811325;29;20054;-86
2022/06/12 10:51:38;;;;;;;14.35;6.57;;;;;;;27.03;40.71;99458.72;4829933;29;20053;-86
2022/06/12 10:54:21;;;;;;;10.13;6.40;;;;;;;27.07;40.52;99456.66;4838756;29;20084;-86
2022/06/12 10:57:01;;;;;;;7.75;6.10;;;;;;;27.23;39.16;99454.06;4839529;29;20041;-85
2022/06/12 10:59:42;;;;;;;11.32;6.72;;;;;;;27.29;39.33;99449.56;4821108;29;20058;-86
2022/06/12 11:02:37;;;;;;;17.73;7.47;;;;;;;27.05;39.21;99433.81;4794401;29;20042;-87
2022/06/12 11:05:39;;;;;;;10.05;7.22;;;;;;;27.05;40.04;99439.44;4822917;29;20429;-85
2022/06/12 11:08:24;;;;;;;21.60;13.02;;;;;;;27.13;38.04;99438.97;4823357;29;20069;-88
2022/06/12 11:11:34;;;;;;;14.65;7.63;;;;;;;26.80;38.36;99426.56;4807746;29;20066;-92
2022/06/12 11:14:19;;;;;;;9.52;6.38;;;;;;;26.62;39.27;99437.19;4835295;29;20046;-88
2022/06/12 11:17:04;;;;;;;7.82;6.82;;;;;;;26.38;39.89;99420.22;4825705;29;20053;-86
2022/06/12 11:20:05;;;;;;;35.10;7.72;;;;;;;26.33;41.41;99431.09;4823262;29;20042;-91
2022/06/12 11:22:44;;;;;;;10.65;6.07;;;;;;;26.25;40.80;99431.16;4753171;29;20058;-87
2022/06/12 11:25:51;;;;;;;13.15;5.95;;;;;;;26.21;40.56;99422.00;4838610;29;20038;-91
2022/06/12 11:28:30;;;;;;;12.57;6.03;;;;;;;26.22;41.28;99434.00;4812751;29;20102;-91
2022/06/12 11:31:13;;;;;;;13.48;6.38;;;;;;;26.20;41.45;99422.44;4831178;29;20082;-89
2022/06/12 11:33:42;;;;;;;12.95;7.32;;;;;;;26.18;42.19;99420.03;4824520;29;20057;-91
2022/06/12 11:36:19;;;;;;;7.97;5.97;;;;;;;26.32;41.02;99413.47;4823960;29;20049;-90
2022/06/12 11:39:15;;;;;;;7.70;6.32;;;;;;;26.38;40.27;99408.22;4800351;29;20117;-89
2022/06/12 11:41:44;;;;;;;16.98;6.68;;;;;;;26.71;39.70;99412.25;4809395;29;20547;-92
2022/06/12 11:44:45;;;;;;;10.15;6.15;;;;;;;26.70;39.05;99391.81;4824850;29;20043;-90
2022/06/12 11:47:40;;;;;;;12.15;5.97;;;;;;;26.95;40.07;99407.50;4788868;29;20066;-91
2022/06/12 11:50:42;;;;;;;12.55;6.65;;;;;;;26.77;37.92;99401.34;4822554;29;20077;-91
2022/06/12 11:53:14;;;;;;;35.78;7.25;;;;;;;26.35;39.41;99395.81;4833382;29;20478;-88
2022/06/12 11:55:57;;;;;;;35.70;7.95;;;;;;;26.15;40.54;99394.84;4831504;29;20042;-87
2022/06/12 11:59:00;;;;;;;13.65;6.80;;;;;;;26.09;40.49;99393.72;4839401;29;20050;-87
2022/06/12 12:01:39;;;;;;;42.25;7.65;;;;;;;26.05;40.46;99387.34;4840797;29;20049;-93
2022/06/12 12:04:20;;;;;;;44.28;7.97;;;;;;;25.92;40.20;99396.28;4833210;29;20119;-88
2022/06/12 12:06:52;;;;;;;25.75;6.97;;;;;;;25.82;39.92;99380.38;4838396;29;20389;-89
2022/06/12 12:09:30;;;;;;;28.80;7.07;;;;;;;25.86;40.09;99375.56;4821410;29;20146;-87
2022/06/12 12:12:11;;;;;;;24.17;6.60;;;;;;;25.62;39.56;99368.13;4820806;29;20535;-92